createdAt,value
2022-12-20T00:02:47.239Z,1.23
2022-12-20T00:07:50.762Z,1.31
2022-12-20T00:12:54.177Z,1.38
2022-12-20T00:17:58.681Z,1.41
2022-12-20T00:23:02.140Z,1.42
2022-12-20T00:28:05.749Z,1.41
2022-12-20T00:33:09.161Z,1.41
2022-12-20T00:38:12.583Z,1.39
2022-12-20T00:43:15.988Z,1.40
2022-12-20T00:48:19.399Z,1.45
2022-12-20T00:53:26.306Z,1.50
2022-12-20T00:58:30.429Z,1.61
2022-12-20T01:03:34.681Z,1.69
2022-12-20T01:08:38.073Z,1.68
2022-12-20T01:13:45.587Z,1.73
2022-12-20T01:18:50.121Z,1.71
2022-12-20T01:23:54.666Z,1.77
2022-12-20T01:29:00.423Z,1.80
2022-12-20T01:34:04.045Z,1.86
2022-12-20T01:39:11.988Z,1.92
2022-12-20T01:44:18.448Z,1.94
2022-12-20T01:49:43.158Z,1.90
2022-12-20T01:54:52.113Z,1.89
2022-12-20T01:59:57.348Z,1.85
2022-12-20T02:05:01.180Z,1.86
2022-12-20T02:10:05.897Z,1.86
2022-12-20T02:15:27.667Z,1.90
2022-12-20T02:20:49.930Z,1.87
2022-12-20T02:26:27.637Z,1.91
2022-12-20T02:31:39.503Z,1.91
2022-12-20T02:36:42.966Z,1.93
2022-12-20T02:42:01.738Z,1.96
2022-12-20T02:47:11.193Z,1.95
2022-12-20T02:52:15.734Z,1.98
2022-12-20T02:57:34.912Z,1.93
2022-12-20T03:02:58.001Z,1.95
2022-12-20T03:08:01.607Z,1.97
2022-12-20T03:13:05.431Z,1.99
2022-12-20T03:18:09.156Z,2.00
2022-12-20T03:23:13.180Z,2.05
2022-12-20T03:28:17.102Z,2.08
2022-12-20T03:33:20.524Z,2.13
2022-12-20T03:38:23.927Z,2.13
2022-12-20T03:43:27.347Z,2.12
2022-12-20T03:48:30.751Z,2.17
2022-12-20T03:53:34.603Z,2.17
2022-12-20T03:58:37.892Z,2.18
2022-12-20T04:03:41.313Z,2.18
2022-12-20T04:08:45.228Z,2.22
2022-12-20T04:13:53.560Z,2.22
2022-12-20T04:18:57.589Z,2.22
2022-12-20T04:24:03.402Z,2.25
2022-12-20T04:29:07.274Z,2.26
2022-12-20T04:34:10.586Z,2.27
2022-12-20T04:39:14.012Z,2.28
2022-12-20T04:44:17.524Z,2.30
2022-12-20T04:49:21.133Z,2.30
2022-12-20T04:54:27.228Z,2.32
2022-12-20T04:59:30.528Z,2.28
2022-12-20T05:04:37.585Z,2.29
2022-12-20T05:09:54.342Z,2.35
2022-12-20T05:14:58.895Z,2.36
2022-12-20T05:20:02.407Z,2.37
2022-12-20T05:25:26.016Z,2.38
2022-12-20T05:30:31.441Z,2.36
2022-12-20T05:35:35.337Z,2.35
2022-12-20T05:40:40.644Z,2.37
2022-12-20T05:45:53.779Z,2.38
2022-12-20T05:50:57.182Z,2.39
2022-12-20T05:56:01.719Z,2.37
2022-12-20T06:01:06.358Z,2.36
2022-12-20T06:06:14.592Z,2.36
2022-12-20T06:11:18.721Z,2.35
2022-12-20T06:16:23.572Z,2.36
2022-12-20T06:21:28.733Z,2.36
2022-12-20T06:26:36.574Z,2.38
2022-12-20T06:31:41.124Z,2.36
2022-12-20T06:43:18.322Z,2.37
2022-12-20T06:48:21.841Z,2.40
2022-12-20T06:53:34.308Z,2.44
2022-12-20T06:58:37.793Z,2.47
2022-12-20T07:03:41.233Z,2.48
2022-12-20T07:08:44.911Z,2.46
2022-12-20T07:13:48.321Z,2.48
2022-12-20T07:18:52.796Z,2.51
2022-12-20T07:23:56.274Z,2.50
2022-12-20T07:28:59.790Z,2.57
2022-12-20T07:34:03.104Z,2.61
2022-12-20T07:39:06.730Z,2.62
2022-12-20T07:44:10.129Z,2.66
2022-12-20T07:49:14.161Z,2.72
2022-12-20T07:54:27.718Z,2.78
2022-12-20T07:59:39.224Z,2.81
2022-12-20T08:04:43.379Z,2.86
2022-12-20T08:09:47.390Z,2.93
2022-12-20T08:14:56.425Z,2.96
2022-12-20T08:20:00.951Z,3.00
2022-12-20T08:25:05.083Z,3.00
2022-12-20T08:30:10.823Z,2.99
2022-12-20T08:35:14.286Z,3.01
2022-12-20T08:40:17.686Z,3.04
2022-12-20T08:45:21.197Z,3.03
2022-12-20T08:50:24.813Z,3.04
2022-12-20T08:55:29.721Z,3.06
2022-12-20T09:00:34.193Z,3.13
2022-12-20T09:05:43.856Z,3.16
2022-12-20T09:10:47.678Z,3.18
2022-12-20T09:15:51.168Z,3.22
2022-12-20T09:20:54.815Z,3.28
2022-12-20T09:26:06.802Z,3.44
2022-12-20T09:31:17.350Z,3.50
2022-12-20T09:36:22.559Z,3.45
2022-12-20T09:41:29.458Z,3.36
2022-12-20T09:46:33.603Z,3.36
2022-12-20T09:51:55.547Z,3.36
2022-12-20T09:57:12.262Z,3.36
2022-12-20T10:03:09.889Z,3.31
2022-12-20T10:07:54.325Z,3.25
2022-12-20T10:13:11.037Z,3.29
2022-12-20T10:18:52.134Z,3.35
2022-12-20T10:24:03.363Z,3.39
2022-12-20T10:29:06.865Z,3.57
2022-12-20T10:34:10.367Z,3.80
2022-12-20T10:39:13.870Z,3.98
2022-12-20T10:44:31.115Z,4.17
2022-12-20T10:49:36.551Z,4.32
2022-12-20T10:54:41.111Z,4.41
2022-12-20T10:59:59.170Z,4.55
2022-12-20T11:05:18.977Z,4.68
2022-12-20T11:10:25.794Z,4.70
2022-12-20T11:15:34.184Z,4.60
2022-12-20T11:20:54.340Z,4.50
2022-12-20T11:26:32.317Z,4.46
2022-12-20T11:31:54.518Z,4.43
2022-12-20T11:37:17.339Z,4.41
2022-12-20T11:42:48.297Z,4.38
2022-12-20T11:48:18.752Z,4.32
2022-12-20T11:53:40.899Z,4.25
2022-12-20T11:58:56.805Z,4.14
2022-12-20T12:04:15.579Z,4.03
2022-12-20T12:09:39.067Z,3.98
2022-12-20T12:15:16.230Z,3.99
2022-12-20T12:20:29.609Z,3.99
2022-12-20T12:25:33.124Z,4.03
2022-12-20T12:30:44.107Z,4.01
2022-12-20T12:36:02.691Z,3.95
2022-12-20T12:41:19.715Z,3.90
2022-12-20T12:46:30.046Z,3.90
2022-12-20T12:51:37.814Z,3.86
2022-12-20T12:56:46.632Z,3.85
2022-12-20T13:02:09.082Z,3.80
2022-12-20T13:07:37.714Z,3.80
2022-12-20T13:12:41.327Z,3.79
2022-12-20T13:17:48.510Z,3.75
2022-12-20T13:23:13.289Z,3.77
2022-12-20T13:28:17.093Z,3.78
2022-12-20T13:33:24.612Z,3.82
2022-12-20T13:38:43.655Z,3.87
2022-12-20T13:43:48.608Z,3.94
2022-12-20T13:48:56.501Z,3.95
2022-12-20T13:54:03.885Z,3.90
2022-12-20T13:59:33.676Z,3.89
2022-12-20T14:05:03.327Z,3.87
2022-12-20T14:10:25.650Z,3.77
2022-12-20T14:15:35.308Z,3.72
2022-12-20T14:20:38.927Z,3.69
2022-12-20T14:25:55.941Z,3.69
2022-12-20T14:31:02.178Z,3.69
2022-12-20T14:36:17.743Z,3.70
2022-12-20T14:41:36.499Z,3.67
2022-12-20T14:46:46.885Z,3.63
2022-12-20T14:52:05.148Z,3.60
2022-12-20T14:57:20.129Z,3.54
2022-12-20T15:02:56.179Z,3.50
2022-12-20T15:08:20.105Z,3.55
2022-12-20T15:13:29.970Z,3.57
2022-12-20T15:18:33.695Z,3.59
2022-12-20T15:23:38.320Z,3.56
2022-12-20T15:28:42.349Z,3.50
2022-12-20T15:33:47.387Z,3.47
2022-12-20T15:39:12.233Z,3.44
2022-12-20T15:44:24.543Z,3.43
2022-12-20T15:49:31.696Z,3.46
2022-12-20T15:54:37.412Z,3.52
2022-12-20T15:59:59.642Z,3.55
2022-12-20T16:05:05.940Z,3.60
2022-12-20T16:10:15.178Z,3.64
2022-12-20T16:15:23.654Z,3.70
2022-12-20T16:20:27.782Z,3.73
2022-12-20T16:25:37.104Z,3.76
2022-12-20T16:30:41.564Z,3.79
2022-12-20T16:35:45.055Z,3.79
2022-12-20T16:40:53.228Z,3.82
2022-12-20T16:45:57.718Z,3.87
2022-12-20T16:51:01.338Z,3.89
2022-12-20T16:56:05.185Z,3.89
2022-12-20T17:01:23.524Z,3.92
2022-12-20T17:06:27.348Z,3.93
2022-12-20T17:11:32.528Z,3.95
2022-12-20T17:16:36.080Z,3.99
2022-12-20T17:27:06.802Z,4.01
2022-12-20T17:32:28.450Z,4.04
2022-12-20T17:37:31.962Z,4.01
2022-12-20T17:42:35.476Z,3.99
2022-12-20T17:47:38.989Z,4.00
2022-12-20T17:52:42.710Z,4.04
2022-12-20T17:57:46.737Z,4.09
2022-12-20T18:02:50.545Z,4.06
2022-12-20T18:07:55.862Z,4.10
2022-12-20T18:12:59.229Z,4.06
2022-12-20T18:18:02.743Z,4.07
2022-12-20T18:23:06.264Z,4.01
2022-12-20T18:28:10.798Z,3.99
2022-12-20T18:33:14.316Z,4.01
2022-12-20T18:38:18.238Z,4.04
2022-12-20T18:43:22.274Z,4.07
2022-12-20T18:48:25.782Z,4.06
2022-12-20T18:53:32.682Z,4.08
2022-12-20T18:58:36.639Z,4.17
2022-12-20T19:03:40.289Z,4.16
2022-12-20T19:08:43.839Z,4.16
2022-12-20T19:13:48.070Z,4.16
2022-12-20T19:18:52.945Z,4.16
2022-12-20T19:23:59.729Z,4.17
2022-12-20T19:29:04.666Z,4.18
2022-12-20T19:34:12.265Z,4.19
2022-12-20T19:39:23.302Z,4.20
2022-12-20T19:44:27.006Z,4.22
2022-12-20T19:49:30.802Z,4.28
2022-12-20T19:54:35.803Z,4.30
2022-12-20T19:59:39.879Z,4.33
2022-12-20T20:04:43.708Z,4.37
2022-12-20T20:09:47.220Z,4.43
2022-12-20T20:14:53.004Z,4.47
2022-12-20T20:19:56.605Z,4.49
2022-12-20T20:25:00.559Z,4.50
2022-12-20T20:30:08.688Z,4.50
2022-12-20T20:35:12.275Z,4.54
2022-12-20T20:40:15.993Z,4.53
2022-12-20T20:45:21.766Z,4.53
2022-12-20T20:50:26.537Z,4.53
2022-12-20T20:55:31.116Z,4.52
2022-12-20T21:00:35.201Z,4.52
2022-12-20T21:11:07.774Z,4.49
2022-12-20T21:16:14.529Z,4.46
2022-12-20T21:21:18.536Z,4.48
2022-12-20T21:26:23.808Z,4.49
2022-12-20T21:31:28.220Z,4.50
2022-12-20T21:36:32.141Z,4.52
2022-12-20T21:41:35.659Z,4.56
2022-12-20T21:46:39.379Z,4.56
2022-12-20T21:51:43.007Z,4.56
2022-12-20T21:56:46.511Z,4.56
2022-12-20T22:01:50.324Z,4.52
2022-12-20T22:06:54.064Z,4.48
2022-12-20T22:11:57.674Z,4.47
2022-12-20T22:17:01.326Z,4.45
2022-12-20T22:22:04.914Z,4.43
2022-12-20T22:27:11.557Z,4.40
2022-12-20T22:32:15.413Z,4.39
2022-12-20T22:37:19.038Z,4.37
2022-12-20T22:42:22.566Z,4.38
2022-12-20T22:47:26.170Z,4.34
2022-12-20T22:52:29.696Z,4.32
2022-12-20T22:57:35.551Z,4.32
2022-12-20T23:02:41.922Z,4.33
2022-12-20T23:07:46.176Z,4.33
2022-12-20T23:13:08.225Z,4.34
2022-12-20T23:18:11.950Z,4.32
2022-12-20T23:23:15.560Z,4.34
2022-12-20T23:28:19.182Z,4.36
2022-12-20T23:33:23.010Z,4.32
2022-12-20T23:38:26.622Z,4.34
2022-12-20T23:43:31.267Z,4.36
2022-12-20T23:48:35.087Z,4.37
2022-12-20T23:53:38.987Z,4.39
2022-12-20T23:58:44.960Z,4.41
